sensor_id;sensor_type;location;lat;lon;timestamp;P1;durP1;ratioP1;P2;durP2;ratioP2
75289;SDS011;63883;48.996;20.804;2023-06-26T00:01:04;8.05;;;5.78;;
75289;SDS011;63883;48.996;20.804;2023-06-26T00:03:50;6.82;;;5.50;;
75289;SDS011;63883;48.996;20.804;2023-06-26T00:06:16;7.00;;;5.05;;
75289;SDS011;63883;48.996;20.804;2023-06-26T00:08:42;7.03;;;5.07;;
75289;SDS011;63883;48.996;20.804;2023-06-26T00:11:08;8.80;;;5.68;;
75289;SDS011;63883;48.996;20.804;2023-06-26T00:13:34;7.85;;;5.30;;
75289;SDS011;63883;48.996;20.804;2023-06-26T00:16:00;7.80;;;5.63;;
75289;SDS011;63883;48.996;20.804;2023-06-26T00:18:28;7.70;;;5.55;;
75289;SDS011;63883;48.996;20.804;2023-06-26T00:20:54;7.90;;;5.45;;
75289;SDS011;63883;48.996;20.804;2023-06-26T00:23:20;9.13;;;5.57;;
75289;SDS011;63883;48.996;20.804;2023-06-26T00:25:46;6.97;;;5.40;;
75289;SDS011;63883;48.996;20.804;2023-06-26T00:28:12;6.43;;;5.28;;
75289;SDS011;63883;48.996;20.804;2023-06-26T00:30:38;7.13;;;5.47;;
75289;SDS011;63883;48.996;20.804;2023-06-26T00:33:03;6.82;;;5.70;;
75289;SDS011;63883;48.996;20.804;2023-06-26T00:35:29;7.03;;;5.70;;
75289;SDS011;63883;48.996;20.804;2023-06-26T00:37:55;7.30;;;5.10;;
75289;SDS011;63883;48.996;20.804;2023-06-26T00:40:20;8.57;;;5.90;;
75289;SDS011;63883;48.996;20.804;2023-06-26T00:42:46;7.18;;;5.47;;
75289;SDS011;63883;48.996;20.804;2023-06-26T00:45:12;9.82;;;5.82;;
75289;SDS011;63883;48.996;20.804;2023-06-26T00:47:37;8.63;;;5.90;;
75289;SDS011;63883;48.996;20.804;2023-06-26T00:50:04;9.55;;;6.28;;
75289;SDS011;63883;48.996;20.804;2023-06-26T00:52:30;8.13;;;6.28;;
75289;SDS011;63883;48.996;20.804;2023-06-26T00:54:57;8.60;;;6.45;;
75289;SDS011;63883;48.996;20.804;2023-06-26T00:57:23;9.05;;;6.47;;
75289;SDS011;63883;48.996;20.804;2023-06-26T00:59:49;11.18;;;7.25;;
75289;SDS011;63883;48.996;20.804;2023-06-26T01:02:15;9.30;;;6.50;;
75289;SDS011;63883;48.996;20.804;2023-06-26T01:04:48;8.88;;;6.70;;
75289;SDS011;63883;48.996;20.804;2023-06-26T01:07:15;9.90;;;6.88;;
75289;SDS011;63883;48.996;20.804;2023-06-26T01:09:44;11.25;;;7.18;;
75289;SDS011;63883;48.996;20.804;2023-06-26T01:12:11;8.98;;;7.05;;
75289;SDS011;63883;48.996;20.804;2023-06-26T01:14:37;8.60;;;6.45;;
75289;SDS011;63883;48.996;20.804;2023-06-26T01:17:03;9.45;;;7.70;;
75289;SDS011;63883;48.996;20.804;2023-06-26T01:19:29;8.35;;;6.60;;
75289;SDS011;63883;48.996;20.804;2023-06-26T01:27:53;7.38;;;5.88;;
75289;SDS011;63883;48.996;20.804;2023-06-26T01:30:19;9.32;;;7.10;;
75289;SDS011;63883;48.996;20.804;2023-06-26T01:32:47;9.43;;;6.95;;
75289;SDS011;63883;48.996;20.804;2023-06-26T01:35:15;9.68;;;7.05;;
75289;SDS011;63883;48.996;20.804;2023-06-26T01:37:41;11.70;;;7.40;;
75289;SDS011;63883;48.996;20.804;2023-06-26T01:40:06;9.63;;;6.95;;
75289;SDS011;63883;48.996;20.804;2023-06-26T01:42:33;9.70;;;7.10;;
75289;SDS011;63883;48.996;20.804;2023-06-26T01:45:03;9.90;;;7.65;;
75289;SDS011;63883;48.996;20.804;2023-06-26T01:47:49;9.55;;;7.28;;
75289;SDS011;63883;48.996;20.804;2023-06-26T01:50:18;12.43;;;6.90;;
75289;SDS011;63883;48.996;20.804;2023-06-26T01:52:58;12.90;;;7.68;;
75289;SDS011;63883;48.996;20.804;2023-06-26T01:55:32;9.90;;;7.00;;
75289;SDS011;63883;48.996;20.804;2023-06-26T01:58:05;10.35;;;7.30;;
75289;SDS011;63883;48.996;20.804;2023-06-26T02:00:31;9.48;;;6.93;;
75289;SDS011;63883;48.996;20.804;2023-06-26T02:02:58;10.38;;;6.75;;
75289;SDS011;63883;48.996;20.804;2023-06-26T02:05:24;9.35;;;7.00;;
75289;SDS011;63883;48.996;20.804;2023-06-26T02:07:50;10.60;;;7.00;;
75289;SDS011;63883;48.996;20.804;2023-06-26T02:10:16;10.85;;;7.15;;
75289;SDS011;63883;48.996;20.804;2023-06-26T02:12:42;18.00;;;13.30;;
75289;SDS011;63883;48.996;20.804;2023-06-26T02:15:09;18.13;;;14.18;;
75289;SDS011;63883;48.996;20.804;2023-06-26T02:17:35;20.42;;;14.38;;
75289;SDS011;63883;48.996;20.804;2023-06-26T02:20:00;14.02;;;10.38;;
75289;SDS011;63883;48.996;20.804;2023-06-26T02:22:27;11.18;;;8.90;;
75289;SDS011;63883;48.996;20.804;2023-06-26T02:24:53;13.38;;;8.07;;
75289;SDS011;63883;48.996;20.804;2023-06-26T02:27:19;10.38;;;7.78;;
75289;SDS011;63883;48.996;20.804;2023-06-26T02:29:45;11.25;;;6.97;;
75289;SDS011;63883;48.996;20.804;2023-06-26T02:32:11;9.90;;;7.22;;
75289;SDS011;63883;48.996;20.804;2023-06-26T02:34:36;18.40;;;12.07;;
75289;SDS011;63883;48.996;20.804;2023-06-26T02:37:02;14.85;;;11.30;;
75289;SDS011;63883;48.996;20.804;2023-06-26T02:39:28;12.52;;;9.50;;
75289;SDS011;63883;48.996;20.804;2023-06-26T02:41:54;13.07;;;9.68;;
75289;SDS011;63883;48.996;20.804;2023-06-26T02:44:19;13.65;;;9.93;;
75289;SDS011;63883;48.996;20.804;2023-06-26T02:46:46;13.98;;;9.77;;
75289;SDS011;63883;48.996;20.804;2023-06-26T02:49:12;12.32;;;8.98;;
75289;SDS011;63883;48.996;20.804;2023-06-26T02:51:38;11.38;;;8.32;;
75289;SDS011;63883;48.996;20.804;2023-06-26T02:54:03;11.30;;;8.70;;
75289;SDS011;63883;48.996;20.804;2023-06-26T02:56:29;11.48;;;7.93;;
75289;SDS011;63883;48.996;20.804;2023-06-26T02:58:55;11.60;;;8.45;;
75289;SDS011;63883;48.996;20.804;2023-06-26T03:01:21;10.07;;;7.88;;
75289;SDS011;63883;48.996;20.804;2023-06-26T03:03:47;9.48;;;7.40;;
75289;SDS011;63883;48.996;20.804;2023-06-26T03:06:14;9.35;;;7.03;;
75289;SDS011;63883;48.996;20.804;2023-06-26T03:08:40;9.85;;;7.40;;
75289;SDS011;63883;48.996;20.804;2023-06-26T03:11:06;9.70;;;7.47;;
75289;SDS011;63883;48.996;20.804;2023-06-26T03:13:33;8.65;;;7.10;;
75289;SDS011;63883;48.996;20.804;2023-06-26T03:16:00;10.93;;;7.38;;
75289;SDS011;63883;48.996;20.804;2023-06-26T03:18:26;9.18;;;6.82;;
75289;SDS011;63883;48.996;20.804;2023-06-26T03:20:52;8.73;;;7.30;;
75289;SDS011;63883;48.996;20.804;2023-06-26T03:23:19;10.68;;;7.82;;
75289;SDS011;63883;48.996;20.804;2023-06-26T03:25:45;10.60;;;7.70;;
75289;SDS011;63883;48.996;20.804;2023-06-26T03:28:11;12.57;;;7.60;;
75289;SDS011;63883;48.996;20.804;2023-06-26T03:30:37;12.15;;;7.68;;
75289;SDS011;63883;48.996;20.804;2023-06-26T03:33:03;9.45;;;7.18;;
75289;SDS011;63883;48.996;20.804;2023-06-26T03:35:28;11.95;;;7.63;;
75289;SDS011;63883;48.996;20.804;2023-06-26T03:37:54;9.80;;;7.22;;
75289;SDS011;63883;48.996;20.804;2023-06-26T03:40:20;10.18;;;7.55;;
75289;SDS011;63883;48.996;20.804;2023-06-26T03:42:45;10.15;;;7.70;;
75289;SDS011;63883;48.996;20.804;2023-06-26T03:45:11;10.70;;;7.95;;
75289;SDS011;63883;48.996;20.804;2023-06-26T03:47:37;9.60;;;7.35;;
75289;SDS011;63883;48.996;20.804;2023-06-26T03:50:03;9.57;;;7.07;;
75289;SDS011;63883;48.996;20.804;2023-06-26T03:52:29;9.13;;;7.00;;
75289;SDS011;63883;48.996;20.804;2023-06-26T03:54:59;11.50;;;7.38;;
75289;SDS011;63883;48.996;20.804;2023-06-26T03:57:25;8.93;;;7.10;;
75289;SDS011;63883;48.996;20.804;2023-06-26T03:59:51;9.93;;;7.10;;
75289;SDS011;63883;48.996;20.804;2023-06-26T04:02:17;9.68;;;7.32;;
75289;SDS011;63883;48.996;20.804;2023-06-26T04:04:43;10.57;;;7.20;;
75289;SDS011;63883;48.996;20.804;2023-06-26T04:07:09;9.20;;;6.93;;
75289;SDS011;63883;48.996;20.804;2023-06-26T04:09:34;9.40;;;6.95;;
75289;SDS011;63883;48.996;20.804;2023-06-26T04:12:00;10.93;;;6.93;;
75289;SDS011;63883;48.996;20.804;2023-06-26T04:14:26;9.65;;;6.70;;
75289;SDS011;63883;48.996;20.804;2023-06-26T04:16:51;10.77;;;7.13;;
75289;SDS011;63883;48.996;20.804;2023-06-26T04:19:18;10.00;;;6.88;;
75289;SDS011;63883;48.996;20.804;2023-06-26T04:21:43;9.40;;;6.95;;
75289;SDS011;63883;48.996;20.804;2023-06-26T04:24:09;11.05;;;7.20;;
75289;SDS011;63883;48.996;20.804;2023-06-26T04:26:35;10.73;;;7.18;;
75289;SDS011;63883;48.996;20.804;2023-06-26T04:29:01;10.15;;;6.97;;
75289;SDS011;63883;48.996;20.804;2023-06-26T04:31:26;9.52;;;7.28;;
75289;SDS011;63883;48.996;20.804;2023-06-26T04:33:52;9.60;;;6.72;;
75289;SDS011;63883;48.996;20.804;2023-06-26T04:36:20;10.88;;;6.68;;
75289;SDS011;63883;48.996;20.804;2023-06-26T04:38:46;8.35;;;6.60;;
75289;SDS011;63883;48.996;20.804;2023-06-26T04:41:13;9.10;;;7.00;;
75289;SDS011;63883;48.996;20.804;2023-06-26T04:43:39;10.52;;;6.68;;
75289;SDS011;63883;48.996;20.804;2023-06-26T04:46:05;19.60;;;11.00;;
75289;SDS011;63883;48.996;20.804;2023-06-26T04:48:31;14.10;;;9.40;;
75289;SDS011;63883;48.996;20.804;2023-06-26T04:50:57;17.25;;;10.90;;
75289;SDS011;63883;48.996;20.804;2023-06-26T04:53:24;12.55;;;7.82;;
75289;SDS011;63883;48.996;20.804;2023-06-26T04:55:51;9.85;;;6.78;;
75289;SDS011;63883;48.996;20.804;2023-06-26T04:58:17;9.80;;;7.00;;
75289;SDS011;63883;48.996;20.804;2023-06-26T05:00:43;12.23;;;7.90;;
75289;SDS011;63883;48.996;20.804;2023-06-26T05:03:10;9.43;;;7.40;;
75289;SDS011;63883;48.996;20.804;2023-06-26T05:05:37;10.25;;;7.05;;
75289;SDS011;63883;48.996;20.804;2023-06-26T05:08:20;10.38;;;7.10;;
75289;SDS011;63883;48.996;20.804;2023-06-26T05:10:47;8.70;;;6.65;;
75289;SDS011;63883;48.996;20.804;2023-06-26T05:13:13;8.10;;;6.70;;
75289;SDS011;63883;48.996;20.804;2023-06-26T05:15:43;10.25;;;6.90;;
75289;SDS011;63883;48.996;20.804;2023-06-26T05:18:12;10.10;;;6.93;;
75289;SDS011;63883;48.996;20.804;2023-06-26T05:20:37;9.98;;;7.30;;
75289;SDS011;63883;48.996;20.804;2023-06-26T05:23:04;10.13;;;7.22;;
75289;SDS011;63883;48.996;20.804;2023-06-26T05:25:31;9.98;;;7.18;;
75289;SDS011;63883;48.996;20.804;2023-06-26T05:27:57;10.32;;;6.97;;
75289;SDS011;63883;48.996;20.804;2023-06-26T05:30:26;9.05;;;7.70;;
75289;SDS011;63883;48.996;20.804;2023-06-26T05:32:53;9.80;;;6.88;;
75289;SDS011;63883;48.996;20.804;2023-06-26T05:35:20;9.95;;;7.13;;
75289;SDS011;63883;48.996;20.804;2023-06-26T05:37:50;8.65;;;6.72;;
75289;SDS011;63883;48.996;20.804;2023-06-26T05:40:17;9.90;;;7.47;;
75289;SDS011;63883;48.996;20.804;2023-06-26T05:42:44;9.18;;;7.28;;
75289;SDS011;63883;48.996;20.804;2023-06-26T05:45:10;10.48;;;7.13;;
75289;SDS011;63883;48.996;20.804;2023-06-26T05:47:36;9.07;;;6.93;;
75289;SDS011;63883;48.996;20.804;2023-06-26T05:50:02;9.75;;;6.95;;
75289;SDS011;63883;48.996;20.804;2023-06-26T05:52:29;9.27;;;6.63;;
75289;SDS011;63883;48.996;20.804;2023-06-26T05:54:56;8.68;;;7.00;;
75289;SDS011;63883;48.996;20.804;2023-06-26T05:57:29;9.65;;;6.45;;
75289;SDS011;63883;48.996;20.804;2023-06-26T05:59:55;10.65;;;6.90;;
75289;SDS011;63883;48.996;20.804;2023-06-26T06:02:21;9.30;;;6.82;;
75289;SDS011;63883;48.996;20.804;2023-06-26T06:04:47;8.98;;;6.53;;
75289;SDS011;63883;48.996;20.804;2023-06-26T06:07:13;9.43;;;7.30;;
75289;SDS011;63883;48.996;20.804;2023-06-26T06:09:39;10.50;;;7.13;;
75289;SDS011;63883;48.996;20.804;2023-06-26T06:12:05;8.60;;;7.22;;
75289;SDS011;63883;48.996;20.804;2023-06-26T06:14:32;9.10;;;6.25;;
75289;SDS011;63883;48.996;20.804;2023-06-26T06:16:58;9.70;;;6.43;;
75289;SDS011;63883;48.996;20.804;2023-06-26T06:19:24;7.97;;;6.68;;
75289;SDS011;63883;48.996;20.804;2023-06-26T06:21:50;9.25;;;7.20;;
75289;SDS011;63883;48.996;20.804;2023-06-26T06:24:15;10.48;;;7.00;;
75289;SDS011;63883;48.996;20.804;2023-06-26T06:26:41;9.25;;;6.35;;
75289;SDS011;63883;48.996;20.804;2023-06-26T06:29:07;8.23;;;6.53;;
75289;SDS011;63883;48.996;20.804;2023-06-26T06:31:33;7.80;;;6.25;;
75289;SDS011;63883;48.996;20.804;2023-06-26T06:33:58;7.95;;;5.97;;
75289;SDS011;63883;48.996;20.804;2023-06-26T06:36:24;8.63;;;6.38;;
75289;SDS011;63883;48.996;20.804;2023-06-26T06:38:50;10.00;;;6.18;;
75289;SDS011;63883;48.996;20.804;2023-06-26T06:41:16;7.38;;;6.03;;
75289;SDS011;63883;48.996;20.804;2023-06-26T06:43:41;8.50;;;6.15;;
75289;SDS011;63883;48.996;20.804;2023-06-26T06:46:08;9.60;;;6.60;;
75289;SDS011;63883;48.996;20.804;2023-06-26T06:48:34;8.35;;;6.78;;
75289;SDS011;63883;48.996;20.804;2023-06-26T06:51:00;8.30;;;6.07;;
75289;SDS011;63883;48.996;20.804;2023-06-26T06:53:26;8.07;;;5.95;;
75289;SDS011;63883;48.996;20.804;2023-06-26T06:55:52;8.75;;;6.38;;
75289;SDS011;63883;48.996;20.804;2023-06-26T06:58:17;8.82;;;6.28;;
75289;SDS011;63883;48.996;20.804;2023-06-26T07:00:44;9.65;;;6.43;;
75289;SDS011;63883;48.996;20.804;2023-06-26T07:03:10;11.57;;;6.10;;
75289;SDS011;63883;48.996;20.804;2023-06-26T07:05:37;9.68;;;6.05;;
75289;SDS011;63883;48.996;20.804;2023-06-26T07:08:03;8.93;;;6.25;;
75289;SDS011;63883;48.996;20.804;2023-06-26T07:10:29;9.02;;;6.68;;
75289;SDS011;63883;48.996;20.804;2023-06-26T07:12:55;9.52;;;6.57;;
75289;SDS011;63883;48.996;20.804;2023-06-26T07:15:21;8.35;;;6.80;;
75289;SDS011;63883;48.996;20.804;2023-06-26T07:17:46;9.30;;;6.10;;
75289;SDS011;63883;48.996;20.804;2023-06-26T07:20:12;7.90;;;5.82;;
75289;SDS011;63883;48.996;20.804;2023-06-26T07:22:41;8.57;;;5.90;;
75289;SDS011;63883;48.996;20.804;2023-06-26T07:25:07;7.70;;;6.05;;
75289;SDS011;63883;48.996;20.804;2023-06-26T07:27:37;8.20;;;6.20;;
75289;SDS011;63883;48.996;20.804;2023-06-26T07:30:04;7.53;;;5.70;;
75289;SDS011;63883;48.996;20.804;2023-06-26T07:32:30;8.25;;;5.95;;
75289;SDS011;63883;48.996;20.804;2023-06-26T07:34:56;6.75;;;5.50;;
75289;SDS011;63883;48.996;20.804;2023-06-26T07:37:21;6.60;;;5.43;;
75289;SDS011;63883;48.996;20.804;2023-06-26T07:39:48;7.70;;;5.75;;
75289;SDS011;63883;48.996;20.804;2023-06-26T07:42:14;9.27;;;6.10;;
75289;SDS011;63883;48.996;20.804;2023-06-26T07:44:41;7.65;;;5.80;;
75289;SDS011;63883;48.996;20.804;2023-06-26T07:47:07;6.28;;;5.28;;
75289;SDS011;63883;48.996;20.804;2023-06-26T07:49:33;6.50;;;5.43;;
75289;SDS011;63883;48.996;20.804;2023-06-26T07:51:58;7.45;;;5.68;;
75289;SDS011;63883;48.996;20.804;2023-06-26T07:54:24;8.70;;;5.68;;
75289;SDS011;63883;48.996;20.804;2023-06-26T07:59:20;7.65;;;5.75;;
75289;SDS011;63883;48.996;20.804;2023-06-26T08:01:49;7.60;;;5.57;;
75289;SDS011;63883;48.996;20.804;2023-06-26T08:04:20;7.75;;;5.63;;
75289;SDS011;63883;48.996;20.804;2023-06-26T08:06:50;7.50;;;5.18;;
75289;SDS011;63883;48.996;20.804;2023-06-26T08:09:17;7.35;;;5.43;;
75289;SDS011;63883;48.996;20.804;2023-06-26T08:11:44;6.75;;;5.00;;
75289;SDS011;63883;48.996;20.804;2023-06-26T08:14:10;7.20;;;5.82;;
75289;SDS011;63883;48.996;20.804;2023-06-26T08:16:39;7.22;;;5.38;;
75289;SDS011;63883;48.996;20.804;2023-06-26T08:19:06;7.93;;;5.00;;
75289;SDS011;63883;48.996;20.804;2023-06-26T08:21:32;7.80;;;5.13;;
75289;SDS011;63883;48.996;20.804;2023-06-26T08:23:57;7.13;;;4.75;;
75289;SDS011;63883;48.996;20.804;2023-06-26T08:26:24;7.75;;;4.70;;
75289;SDS011;63883;48.996;20.804;2023-06-26T08:28:50;8.73;;;5.15;;
75289;SDS011;63883;48.996;20.804;2023-06-26T08:31:16;6.32;;;4.72;;
75289;SDS011;63883;48.996;20.804;2023-06-26T08:33:42;5.10;;;4.45;;
75289;SDS011;63883;48.996;20.804;2023-06-26T08:36:08;5.43;;;4.63;;
75289;SDS011;63883;48.996;20.804;2023-06-26T08:38:34;5.78;;;4.72;;
75289;SDS011;63883;48.996;20.804;2023-06-26T08:40:59;6.22;;;5.00;;
75289;SDS011;63883;48.996;20.804;2023-06-26T08:43:25;6.65;;;4.85;;
75289;SDS011;63883;48.996;20.804;2023-06-26T08:45:52;5.60;;;4.63;;
75289;SDS011;63883;48.996;20.804;2023-06-26T08:48:18;5.78;;;4.50;;
75289;SDS011;63883;48.996;20.804;2023-06-26T08:53:16;5.57;;;4.03;;
75289;SDS011;63883;48.996;20.804;2023-06-26T08:55:53;4.93;;;4.05;;
75289;SDS011;63883;48.996;20.804;2023-06-26T08:58:22;5.13;;;4.10;;
75289;SDS011;63883;48.996;20.804;2023-06-26T09:00:48;7.22;;;4.13;;
75289;SDS011;63883;48.996;20.804;2023-06-26T09:03:15;5.40;;;4.32;;
75289;SDS011;63883;48.996;20.804;2023-06-26T09:05:41;5.40;;;3.83;;
75289;SDS011;63883;48.996;20.804;2023-06-26T09:08:07;4.95;;;4.20;;
75289;SDS011;63883;48.996;20.804;2023-06-26T09:10:33;5.50;;;4.22;;
75289;SDS011;63883;48.996;20.804;2023-06-26T09:12:59;6.05;;;4.53;;
75289;SDS011;63883;48.996;20.804;2023-06-26T09:15:26;5.47;;;4.30;;
75289;SDS011;63883;48.996;20.804;2023-06-26T09:17:57;6.25;;;4.15;;
75289;SDS011;63883;48.996;20.804;2023-06-26T09:20:25;5.28;;;4.30;;
75289;SDS011;63883;48.996;20.804;2023-06-26T09:22:53;4.47;;;3.83;;
75289;SDS011;63883;48.996;20.804;2023-06-26T09:25:18;4.43;;;3.70;;
75289;SDS011;63883;48.996;20.804;2023-06-26T09:27:47;5.82;;;3.90;;
75289;SDS011;63883;48.996;20.804;2023-06-26T09:30:16;4.15;;;3.70;;
75289;SDS011;63883;48.996;20.804;2023-06-26T09:32:42;4.78;;;3.80;;
75289;SDS011;63883;48.996;20.804;2023-06-26T09:35:07;5.07;;;3.90;;
75289;SDS011;63883;48.996;20.804;2023-06-26T09:37:34;5.78;;;4.03;;
75289;SDS011;63883;48.996;20.804;2023-06-26T09:39:59;5.57;;;3.88;;
75289;SDS011;63883;48.996;20.804;2023-06-26T09:42:25;5.05;;;3.72;;
75289;SDS011;63883;48.996;20.804;2023-06-26T09:44:51;5.53;;;3.97;;
75289;SDS011;63883;48.996;20.804;2023-06-26T09:47:21;5.10;;;4.10;;
75289;SDS011;63883;48.996;20.804;2023-06-26T09:49:47;4.60;;;3.90;;
75289;SDS011;63883;48.996;20.804;2023-06-26T09:52:16;5.07;;;3.90;;
75289;SDS011;63883;48.996;20.804;2023-06-26T09:54:42;5.07;;;4.30;;
75289;SDS011;63883;48.996;20.804;2023-06-26T09:57:11;4.45;;;3.83;;
75289;SDS011;63883;48.996;20.804;2023-06-26T09:59:38;4.55;;;3.88;;
75289;SDS011;63883;48.996;20.804;2023-06-26T10:02:05;5.25;;;3.80;;
75289;SDS011;63883;48.996;20.804;2023-06-26T10:04:31;4.80;;;4.18;;
75289;SDS011;63883;48.996;20.804;2023-06-26T10:06:58;4.65;;;3.67;;
75289;SDS011;63883;48.996;20.804;2023-06-26T10:09:27;4.32;;;3.65;;
75289;SDS011;63883;48.996;20.804;2023-06-26T10:12:06;4.05;;;3.60;;
75289;SDS011;63883;48.996;20.804;2023-06-26T10:14:35;4.75;;;3.90;;
75289;SDS011;63883;48.996;20.804;2023-06-26T10:17:07;5.00;;;3.53;;
75289;SDS011;63883;48.996;20.804;2023-06-26T10:19:39;5.25;;;3.75;;
75289;SDS011;63883;48.996;20.804;2023-06-26T10:22:08;4.50;;;3.80;;
75289;SDS011;63883;48.996;20.804;2023-06-26T10:24:37;4.43;;;3.67;;
75289;SDS011;63883;48.996;20.804;2023-06-26T10:27:08;4.38;;;3.67;;
75289;SDS011;63883;48.996;20.804;2023-06-26T10:29:35;4.40;;;3.70;;
75289;SDS011;63883;48.996;20.804;2023-06-26T10:32:02;4.65;;;3.92;;
75289;SDS011;63883;48.996;20.804;2023-06-26T10:42:20;5.05;;;4.03;;
75289;SDS011;63883;48.996;20.804;2023-06-26T10:47:34;4.47;;;3.60;;
75289;SDS011;63883;48.996;20.804;2023-06-26T10:52:43;4.97;;;3.72;;
75289;SDS011;63883;48.996;20.804;2023-06-26T10:55:09;6.85;;;3.78;;
75289;SDS011;63883;48.996;20.804;2023-06-26T10:57:38;5.65;;;3.90;;
75289;SDS011;63883;48.996;20.804;2023-06-26T11:00:10;5.55;;;3.90;;
75289;SDS011;63883;48.996;20.804;2023-06-26T11:02:51;4.72;;;4.15;;
75289;SDS011;63883;48.996;20.804;2023-06-26T11:05:24;4.30;;;3.47;;
75289;SDS011;63883;48.996;20.804;2023-06-26T11:08:05;5.45;;;3.85;;
75289;SDS011;63883;48.996;20.804;2023-06-26T11:10:52;5.32;;;4.15;;
75289;SDS011;63883;48.996;20.804;2023-06-26T11:13:19;5.30;;;4.20;;
75289;SDS011;63883;48.996;20.804;2023-06-26T11:15:46;5.57;;;4.00;;
75289;SDS011;63883;48.996;20.804;2023-06-26T11:18:13;5.00;;;3.67;;
75289;SDS011;63883;48.996;20.804;2023-06-26T11:20:39;4.20;;;3.50;;
75289;SDS011;63883;48.996;20.804;2023-06-26T11:23:05;4.50;;;3.80;;
75289;SDS011;63883;48.996;20.804;2023-06-26T11:28:02;5.78;;;3.40;;
75289;SDS011;63883;48.996;20.804;2023-06-26T11:30:29;4.30;;;3.90;;
75289;SDS011;63883;48.996;20.804;2023-06-26T11:35:30;4.00;;;3.60;;
75289;SDS011;63883;48.996;20.804;2023-06-26T11:37:56;4.55;;;3.78;;
75289;SDS011;63883;48.996;20.804;2023-06-26T11:40:25;5.93;;;4.00;;
75289;SDS011;63883;48.996;20.804;2023-06-26T11:42:53;4.88;;;3.60;;
75289;SDS011;63883;48.996;20.804;2023-06-26T11:45:19;4.40;;;3.63;;
75289;SDS011;63883;48.996;20.804;2023-06-26T11:47:45;4.82;;;3.83;;
75289;SDS011;63883;48.996;20.804;2023-06-26T11:50:17;3.72;;;3.33;;
75289;SDS011;63883;48.996;20.804;2023-06-26T11:52:43;5.00;;;3.72;;
75289;SDS011;63883;48.996;20.804;2023-06-26T11:55:10;4.07;;;3.45;;
75289;SDS011;63883;48.996;20.804;2023-06-26T11:57:37;4.35;;;3.53;;
75289;SDS011;63883;48.996;20.804;2023-06-26T12:00:12;4.80;;;3.58;;
75289;SDS011;63883;48.996;20.804;2023-06-26T12:02:42;5.80;;;3.85;;
75289;SDS011;63883;48.996;20.804;2023-06-26T12:05:09;3.80;;;3.35;;
75289;SDS011;63883;48.996;20.804;2023-06-26T12:07:37;4.00;;;3.53;;
75289;SDS011;63883;48.996;20.804;2023-06-26T12:10:03;3.85;;;3.50;;
75289;SDS011;63883;48.996;20.804;2023-06-26T12:12:30;4.95;;;3.50;;
75289;SDS011;63883;48.996;20.804;2023-06-26T12:14:57;5.43;;;3.80;;
75289;SDS011;63883;48.996;20.804;2023-06-26T12:17:23;4.10;;;3.53;;
75289;SDS011;63883;48.996;20.804;2023-06-26T12:19:52;4.00;;;3.60;;
75289;SDS011;63883;48.996;20.804;2023-06-26T12:22:18;3.88;;;3.53;;
75289;SDS011;63883;48.996;20.804;2023-06-26T12:24:44;4.57;;;3.80;;
75289;SDS011;63883;48.996;20.804;2023-06-26T12:27:12;3.97;;;3.58;;
75289;SDS011;63883;48.996;20.804;2023-06-26T12:29:40;4.32;;;3.92;;
75289;SDS011;63883;48.996;20.804;2023-06-26T12:32:10;3.95;;;3.53;;
75289;SDS011;63883;48.996;20.804;2023-06-26T12:34:37;4.28;;;3.70;;
75289;SDS011;63883;48.996;20.804;2023-06-26T12:39:44;5.15;;;3.65;;
75289;SDS011;63883;48.996;20.804;2023-06-26T12:42:16;4.20;;;3.42;;
75289;SDS011;63883;48.996;20.804;2023-06-26T12:44:45;4.28;;;3.80;;
75289;SDS011;63883;48.996;20.804;2023-06-26T12:47:12;3.80;;;3.40;;
75289;SDS011;63883;48.996;20.804;2023-06-26T12:49:40;4.10;;;3.70;;
75289;SDS011;63883;48.996;20.804;2023-06-26T12:52:09;3.42;;;3.13;;
75289;SDS011;63883;48.996;20.804;2023-06-26T12:54:35;4.22;;;3.72;;
75289;SDS011;63883;48.996;20.804;2023-06-26T12:57:03;4.78;;;3.72;;
75289;SDS011;63883;48.996;20.804;2023-06-26T12:59:30;4.97;;;3.88;;
75289;SDS011;63883;48.996;20.804;2023-06-26T13:01:57;4.57;;;3.70;;
75289;SDS011;63883;48.996;20.804;2023-06-26T13:04:23;4.10;;;3.63;;
75289;SDS011;63883;48.996;20.804;2023-06-26T13:06:49;4.43;;;3.30;;
75289;SDS011;63883;48.996;20.804;2023-06-26T13:09:15;4.93;;;3.50;;
75289;SDS011;63883;48.996;20.804;2023-06-26T13:11:41;3.72;;;3.42;;
75289;SDS011;63883;48.996;20.804;2023-06-26T13:14:07;4.60;;;3.67;;
75289;SDS011;63883;48.996;20.804;2023-06-26T13:16:33;4.28;;;3.88;;
75289;SDS011;63883;48.996;20.804;2023-06-26T13:18:59;3.80;;;3.50;;
75289;SDS011;63883;48.996;20.804;2023-06-26T13:21:27;4.82;;;3.90;;
75289;SDS011;63883;48.996;20.804;2023-06-26T13:23:53;4.47;;;3.80;;
75289;SDS011;63883;48.996;20.804;2023-06-26T13:26:19;4.35;;;3.72;;
75289;SDS011;63883;48.996;20.804;2023-06-26T13:28:46;4.82;;;3.65;;
75289;SDS011;63883;48.996;20.804;2023-06-26T13:31:13;3.92;;;3.53;;
75289;SDS011;63883;48.996;20.804;2023-06-26T13:33:39;4.10;;;3.70;;
75289;SDS011;63883;48.996;20.804;2023-06-26T13:36:04;4.05;;;3.30;;
75289;SDS011;63883;48.996;20.804;2023-06-26T13:38:32;4.65;;;3.20;;
75289;SDS011;63883;48.996;20.804;2023-06-26T13:40:59;4.05;;;3.47;;
75289;SDS011;63883;48.996;20.804;2023-06-26T13:43:28;3.90;;;3.42;;
75289;SDS011;63883;48.996;20.804;2023-06-26T13:45:55;4.00;;;3.60;;
75289;SDS011;63883;48.996;20.804;2023-06-26T13:48:21;4.85;;;4.03;;
75289;SDS011;63883;48.996;20.804;2023-06-26T13:50:50;4.43;;;3.75;;
75289;SDS011;63883;48.996;20.804;2023-06-26T13:53:16;4.85;;;3.97;;
75289;SDS011;63883;48.996;20.804;2023-06-26T13:55:42;4.50;;;3.70;;
75289;SDS011;63883;48.996;20.804;2023-06-26T13:58:08;6.28;;;5.20;;
75289;SDS011;63883;48.996;20.804;2023-06-26T14:00:35;4.00;;;3.60;;
75289;SDS011;63883;48.996;20.804;2023-06-26T14:03:04;7.22;;;5.35;;
75289;SDS011;63883;48.996;20.804;2023-06-26T14:05:32;4.00;;;3.60;;
75289;SDS011;63883;48.996;20.804;2023-06-26T14:07:58;5.35;;;3.70;;
75289;SDS011;63883;48.996;20.804;2023-06-26T14:10:24;4.20;;;3.40;;
75289;SDS011;63883;48.996;20.804;2023-06-26T14:12:50;4.20;;;3.67;;
75289;SDS011;63883;48.996;20.804;2023-06-26T14:15:16;4.68;;;3.45;;
75289;SDS011;63883;48.996;20.804;2023-06-26T14:17:42;4.10;;;3.70;;
75289;SDS011;63883;48.996;20.804;2023-06-26T14:20:09;4.03;;;3.63;;
75289;SDS011;63883;48.996;20.804;2023-06-26T14:22:38;3.67;;;3.38;;
75289;SDS011;63883;48.996;20.804;2023-06-26T14:27:31;3.85;;;3.40;;
75289;SDS011;63883;48.996;20.804;2023-06-26T14:29:57;4.60;;;4.20;;
75289;SDS011;63883;48.996;20.804;2023-06-26T14:32:22;4.55;;;3.72;;
75289;SDS011;63883;48.996;20.804;2023-06-26T14:34:48;4.78;;;4.35;;
75289;SDS011;63883;48.996;20.804;2023-06-26T14:37:14;3.72;;;3.40;;
75289;SDS011;63883;48.996;20.804;2023-06-26T14:39:39;4.00;;;3.55;;
75289;SDS011;63883;48.996;20.804;2023-06-26T14:42:05;5.25;;;3.70;;
75289;SDS011;63883;48.996;20.804;2023-06-26T14:44:33;4.25;;;3.42;;
75289;SDS011;63883;48.996;20.804;2023-06-26T14:46:58;3.85;;;3.20;;
75289;SDS011;63883;48.996;20.804;2023-06-26T14:49:24;4.00;;;3.60;;
75289;SDS011;63883;48.996;20.804;2023-06-26T14:51:49;4.40;;;3.60;;
75289;SDS011;63883;48.996;20.804;2023-06-26T14:54:15;4.45;;;3.83;;
75289;SDS011;63883;48.996;20.804;2023-06-26T14:56:41;5.78;;;3.88;;
75289;SDS011;63883;48.996;20.804;2023-06-26T14:59:09;4.18;;;3.72;;
75289;SDS011;63883;48.996;20.804;2023-06-26T15:01:35;4.28;;;3.63;;
75289;SDS011;63883;48.996;20.804;2023-06-26T15:04:01;4.10;;;3.55;;